Time;durP1;ratioP1;P1;durP2;ratioP2;P2;SDS_P1;SDS_P2;PMS_P1;PMS_P2;Temp;Humidity;BMP_temperature;BMP_pressure;BME280_temperature;BME280_humidity;BME280_pressure;Samples;Min_cycle;Max_cycle;Signal;HPM_P1;HPM_P2
2023/06/22 00:02:23;;;;;;;;;8.00;7.00;;;;;;;;5026511;28;52785;-53
2023/06/22 00:04:48;;;;;;;;;11.00;11.00;;;;;;;;5026524;28;51016;-51
2023/06/22 00:07:14;;;;;;;;;8.00;8.00;;;;;;;;5025734;28;52565;-52
2023/06/22 00:09:39;;;;;;;;;9.33;8.33;;;;;;;;5032502;28;51295;-52
2023/06/22 00:12:04;;;;;;;;;9.00;8.00;;;;;;;;5032154;28;52251;-52
2023/06/22 00:14:30;;;;;;;;;7.67;7.67;;;;;;;;5019504;28;51129;-52
2023/06/22 00:16:57;;;;;;;;;10.00;8.33;;;;;;;;5032129;28;51241;-53
2023/06/22 00:19:23;;;;;;;;;8.67;8.33;;;;;;;;5031566;28;51199;-54
2023/06/22 00:21:52;;;;;;;;;8.00;8.00;;;;;;;;5030416;28;52056;-55
2023/06/22 00:24:17;;;;;;;;;12.33;11.67;;;;;;;;5032408;28;51390;-52
2023/06/22 00:26:43;;;;;;;;;7.00;7.00;;;;;;;;5032161;28;51005;-52
2023/06/22 00:29:08;;;;;;;;;10.00;9.67;;;;;;;;5032297;28;51440;-52
2023/06/22 00:31:33;;;;;;;;;6.00;5.33;;;;;;;;5025325;28;52561;-52
2023/06/22 00:33:58;;;;;;;;;7.00;6.33;;;;;;;;5013021;28;51144;-53
2023/06/22 00:36:24;;;;;;;;;5.67;5.67;;;;;;;;5014297;28;51117;-52
2023/06/22 00:38:50;;;;;;;;;7.00;7.00;;;;;;;;5014862;28;51113;-51
2023/06/22 00:41:15;;;;;;;;;6.33;6.33;;;;;;;;5023353;28;52680;-52
2023/06/22 00:43:42;;;;;;;;;8.33;8.33;;;;;;;;5017778;28;51167;-54
2023/06/22 00:46:07;;;;;;;;;8.00;7.00;;;;;;;;5021782;28;50981;-52
2023/06/22 00:48:33;;;;;;;;;8.00;8.00;;;;;;;;5012945;28;50955;-53
2023/06/22 00:50:58;;;;;;;;;11.67;11.00;;;;;;;;5027202;28;51080;-52
2023/06/22 00:53:24;;;;;;;;;10.33;10.00;;;;;;;;5018100;28;50823;-52
2023/06/22 00:55:52;;;;;;;;;8.33;8.00;;;;;;;;5031803;28;50985;-53
2023/06/22 00:58:21;;;;;;;;;6.67;6.00;;;;;;;;5032738;28;51177;-54
2023/06/22 01:00:46;;;;;;;;;8.67;8.00;;;;;;;;5029934;28;52367;-51
2023/06/22 01:03:12;;;;;;;;;8.00;8.00;;;;;;;;5029586;28;51236;-52
2023/06/22 01:05:38;;;;;;;;;6.00;5.00;;;;;;;;5023520;28;51886;-52
2023/06/22 01:08:17;;;;;;;;;8.00;8.00;;;;;;;;5016690;28;51185;-54
2023/06/22 01:10:45;;;;;;;;;48.00;40.50;;;;;;;;5030398;28;51210;-54
2023/06/22 01:13:19;;;;;;;;;11.00;11.00;;;;;;;;5032152;28;51187;-53
2023/06/22 01:15:49;;;;;;;;;14.00;14.00;;;;;;;;5019853;28;51158;-54
2023/06/22 01:18:15;;;;;;;;;9.33;8.33;;;;;;;;5031551;28;51178;-54
2023/06/22 01:20:41;;;;;;;;;8.00;7.00;;;;;;;;5014517;28;52238;-54
2023/06/22 01:23:12;;;;;;;;;16.75;16.50;;;;;;;;5030597;28;50992;-54
2023/06/22 01:25:37;;;;;;;;;7.67;7.33;;;;;;;;5026869;28;51354;-54
2023/06/22 01:28:16;;;;;;;;;9.33;9.00;;;;;;;;5027003;28;51018;-54
2023/06/22 01:30:45;;;;;;;;;16.00;15.00;;;;;;;;5025996;28;52258;-52
2023/06/22 01:33:11;;;;;;;;;13.67;13.33;;;;;;;;5021298;28;51435;-53
2023/06/22 01:35:37;;;;;;;;;17.00;15.00;;;;;;;;5026904;28;51112;-53
2023/06/22 01:38:02;;;;;;;;;9.00;8.00;;;;;;;;5023601;28;51117;-55
2023/06/22 01:40:28;;;;;;;;;9.00;9.00;;;;;;;;5019698;28;50983;-55
2023/06/22 01:42:53;;;;;;;;;10.00;10.00;;;;;;;;5014520;28;51195;-54
2023/06/22 01:45:19;;;;;;;;;8.00;7.00;;;;;;;;5018655;28;51140;-55
2023/06/22 01:47:44;;;;;;;;;6.33;6.00;;;;;;;;5014981;28;51116;-52
2023/06/22 01:50:10;;;;;;;;;5.67;5.67;;;;;;;;5020905;28;54117;-53
2023/06/22 01:52:35;;;;;;;;;10.00;9.00;;;;;;;;5018361;28;51033;-51
2023/06/22 01:55:01;;;;;;;;;10.00;9.00;;;;;;;;5022725;28;51230;-52
2023/06/22 01:57:27;;;;;;;;;10.67;10.00;;;;;;;;5024672;28;51204;-55
2023/06/22 02:00:07;;;;;;;;;8.00;7.00;;;;;;;;5027583;28;52303;-55
2023/06/22 02:02:36;;;;;;;;;8.00;6.33;;;;;;;;5027370;28;51115;-54
2023/06/22 02:05:06;;;;;;;;;8.67;7.67;;;;;;;;5029038;28;51007;-53
2023/06/22 02:07:34;;;;;;;;;7.67;6.67;;;;;;;;5022410;28;51150;-55
2023/06/22 02:10:00;;;;;;;;;8.67;8.00;;;;;;;;5015327;28;51124;-53
2023/06/22 02:12:27;;;;;;;;;7.33;7.33;;;;;;;;5014553;28;51183;-55
2023/06/22 02:14:53;;;;;;;;;6.33;6.00;;;;;;;;5028198;28;50978;-54
2023/06/22 02:17:18;;;;;;;;;7.00;7.00;;;;;;;;5030699;28;51154;-53
2023/06/22 02:19:44;;;;;;;;;6.67;6.33;;;;;;;;5023584;28;51113;-54
2023/06/22 02:22:09;;;;;;;;;7.00;7.00;;;;;;;;5026339;28;51119;-53
2023/06/22 02:24:34;;;;;;;;;6.33;6.33;;;;;;;;5027355;28;51069;-56
2023/06/22 02:27:00;;;;;;;;;8.33;8.33;;;;;;;;5028706;28;51299;-54
2023/06/22 02:29:27;;;;;;;;;6.33;6.00;;;;;;;;5028470;28;51155;-55
2023/06/22 02:31:52;;;;;;;;;8.00;7.33;;;;;;;;5015494;28;51877;-53
2023/06/22 02:34:18;;;;;;;;;7.67;7.67;;;;;;;;5019884;28;51076;-53
2023/06/22 02:36:50;;;;;;;;;5.33;5.33;;;;;;;;5025738;28;51782;-54
2023/06/22 02:39:15;;;;;;;;;7.00;6.00;;;;;;;;5030956;28;52112;-55
2023/06/22 02:41:40;;;;;;;;;6.33;6.00;;;;;;;;5025720;28;51139;-56
2023/06/22 02:44:06;;;;;;;;;6.67;6.67;;;;;;;;5033773;28;50990;-55
2023/06/22 02:46:31;;;;;;;;;9.67;9.33;;;;;;;;5026091;28;51177;-56
2023/06/22 02:48:56;;;;;;;;;7.00;6.67;;;;;;;;5029205;28;51400;-54
2023/06/22 02:51:22;;;;;;;;;9.33;8.33;;;;;;;;5019291;28;51196;-54
2023/06/22 02:53:47;;;;;;;;;8.00;7.67;;;;;;;;5021974;28;51227;-53
2023/06/22 02:56:13;;;;;;;;;6.33;6.33;;;;;;;;5029633;28;51420;-55
2023/06/22 02:58:39;;;;;;;;;6.33;6.00;;;;;;;;5023634;28;51266;-55
2023/06/22 03:01:05;;;;;;;;;7.00;7.00;;;;;;;;5029283;28;51260;-55
2023/06/22 03:03:30;;;;;;;;;6.00;5.67;;;;;;;;5027989;28;50985;-55
2023/06/22 03:05:55;;;;;;;;;6.00;6.00;;;;;;;;5033100;28;51100;-53
2023/06/22 03:08:20;;;;;;;;;10.00;10.00;;;;;;;;5024720;28;52139;-55
2023/06/22 03:10:46;;;;;;;;;7.33;7.00;;;;;;;;5026328;28;51207;-56
2023/06/22 03:13:11;;;;;;;;;7.00;7.00;;;;;;;;5028452;28;51432;-55
2023/06/22 03:15:36;;;;;;;;;7.00;6.67;;;;;;;;5022321;28;51160;-55
2023/06/22 03:18:01;;;;;;;;;6.67;5.00;;;;;;;;5028572;28;52180;-54
2023/06/22 03:20:33;;;;;;;;;8.00;8.00;;;;;;;;5029818;28;51214;-55
2023/06/22 03:22:58;;;;;;;;;5.67;5.00;;;;;;;;5025309;28;50910;-55
2023/06/22 03:25:23;;;;;;;;;6.67;6.67;;;;;;;;5021262;28;51186;-56
2023/06/22 03:27:49;;;;;;;;;8.00;7.67;;;;;;;;5030760;28;52007;-56
2023/06/22 03:30:14;;;;;;;;;7.33;6.00;;;;;;;;5020385;28;51023;-56
2023/06/22 03:32:39;;;;;;;;;5.33;5.33;;;;;;;;5025745;28;52620;-55
2023/06/22 03:35:06;;;;;;;;;7.00;7.00;;;;;;;;5022856;28;51255;-55
2023/06/22 03:37:31;;;;;;;;;7.33;7.33;;;;;;;;5023860;28;52634;-56
2023/06/22 03:39:56;;;;;;;;;8.33;8.00;;;;;;;;5029774;28;51120;-55
2023/06/22 03:42:21;;;;;;;;;10.67;10.00;;;;;;;;5030118;28;51376;-54
2023/06/22 03:44:46;;;;;;;;;6.00;6.00;;;;;;;;5030747;28;51315;-55
2023/06/22 03:47:12;;;;;;;;;7.00;6.33;;;;;;;;5017124;28;51696;-55
2023/06/22 03:49:37;;;;;;;;;8.00;7.00;;;;;;;;5028035;28;51175;-55
2023/06/22 03:52:02;;;;;;;;;8.00;7.00;;;;;;;;5025873;28;51208;-56
2023/06/22 03:54:28;;;;;;;;;7.00;6.00;;;;;;;;5018209;28;51084;-55
2023/06/22 03:56:53;;;;;;;;;7.33;6.67;;;;;;;;5031082;28;52202;-55
2023/06/22 03:59:19;;;;;;;;;9.00;8.67;;;;;;;;5029923;28;51175;-54
2023/06/22 04:01:44;;;;;;;;;8.67;8.67;;;;;;;;5023472;28;51052;-57
2023/06/22 04:04:09;;;;;;;;;10.33;7.67;;;;;;;;5017917;28;51198;-55
2023/06/22 04:06:35;;;;;;;;;6.33;6.33;;;;;;;;5030440;28;51620;-56
2023/06/22 04:09:00;;;;;;;;;8.00;7.00;;;;;;;;5028553;28;51085;-56
2023/06/22 04:11:25;;;;;;;;;7.67;6.33;;;;;;;;5023391;28;51779;-56
2023/06/22 04:13:51;;;;;;;;;8.33;8.00;;;;;;;;5014295;28;51084;-56
2023/06/22 04:16:16;;;;;;;;;7.67;6.00;;;;;;;;5027062;28;52241;-54
2023/06/22 04:18:41;;;;;;;;;7.00;7.00;;;;;;;;5023247;28;51125;-54
2023/06/22 04:21:07;;;;;;;;;7.67;7.33;;;;;;;;5026474;28;50930;-55
2023/06/22 04:23:32;;;;;;;;;9.33;8.67;;;;;;;;5030424;28;51016;-55
2023/06/22 04:25:57;;;;;;;;;8.67;7.67;;;;;;;;5021703;28;51357;-55
2023/06/22 04:28:22;;;;;;;;;7.00;6.00;;;;;;;;5025966;28;51002;-55
2023/06/22 04:30:48;;;;;;;;;9.00;7.33;;;;;;;;5027425;28;51108;-56
2023/06/22 04:33:14;;;;;;;;;9.33;9.00;;;;;;;;5030050;28;50954;-56
2023/06/22 04:35:41;;;;;;;;;8.00;7.67;;;;;;;;5021790;28;51672;-58
2023/06/22 04:38:06;;;;;;;;;9.00;7.67;;;;;;;;5024028;28;50953;-56
2023/06/22 04:40:31;;;;;;;;;7.33;7.33;;;;;;;;5016121;28;50966;-56
2023/06/22 04:42:57;;;;;;;;;9.00;8.00;;;;;;;;5025299;28;51187;-56
2023/06/22 04:45:22;;;;;;;;;8.00;7.00;;;;;;;;5028941;28;51241;-56
2023/06/22 04:47:47;;;;;;;;;10.00;10.00;;;;;;;;5024688;28;51100;-56
2023/06/22 04:50:12;;;;;;;;;9.33;9.00;;;;;;;;5013634;28;51361;-56
2023/06/22 04:52:38;;;;;;;;;7.67;7.33;;;;;;;;5017639;28;51083;-57
2023/06/22 04:55:03;;;;;;;;;9.33;8.67;;;;;;;;5020958;28;52777;-57
2023/06/22 04:57:32;;;;;;;;;7.00;7.00;;;;;;;;5022668;28;51165;-57
2023/06/22 05:00:06;;;;;;;;;11.00;10.33;;;;;;;;5023984;28;51061;-58
2023/06/22 05:02:32;;;;;;;;;5.33;5.33;;;;;;;;5022891;28;51246;-57
2023/06/22 05:04:57;;;;;;;;;9.00;8.33;;;;;;;;5014212;28;51145;-56
2023/06/22 05:07:25;;;;;;;;;11.00;10.00;;;;;;;;5023408;28;50964;-56
2023/06/22 05:09:50;;;;;;;;;11.00;9.67;;;;;;;;5019591;28;51000;-56
2023/06/22 05:12:15;;;;;;;;;9.67;9.33;;;;;;;;5031366;28;51298;-57
2023/06/22 05:14:40;;;;;;;;;10.67;10.67;;;;;;;;5029065;28;51154;-56
2023/06/22 05:17:13;;;;;;;;;9.00;9.00;;;;;;;;5025976;28;51546;-57
2023/06/22 05:19:39;;;;;;;;;12.33;11.33;;;;;;;;5023981;28;51088;-56
2023/06/22 05:22:04;;;;;;;;;11.00;10.00;;;;;;;;5015427;28;50844;-56
2023/06/22 05:24:29;;;;;;;;;10.67;10.67;;;;;;;;5019231;28;52500;-56
2023/06/22 05:26:55;;;;;;;;;10.33;9.00;;;;;;;;5014376;28;51246;-55
2023/06/22 05:29:21;;;;;;;;;12.67;10.67;;;;;;;;5032368;28;50999;-57
2023/06/22 05:31:47;;;;;;;;;10.67;10.33;;;;;;;;5026466;28;51231;-56
2023/06/22 05:34:12;;;;;;;;;14.00;12.67;;;;;;;;5018468;28;51813;-56
2023/06/22 05:36:38;;;;;;;;;13.50;11.00;;;;;;;;5016194;28;51234;-57
2023/06/22 05:39:12;;;;;;;;;12.00;11.33;;;;;;;;5023394;28;50967;-55
2023/06/22 05:41:37;;;;;;;;;12.00;12.00;;;;;;;;5028148;28;51498;-57
2023/06/22 05:44:03;;;;;;;;;13.00;12.00;;;;;;;;5019694;28;51839;-55
2023/06/22 05:46:28;;;;;;;;;14.00;13.00;;;;;;;;5024731;28;51266;-57
2023/06/22 05:48:53;;;;;;;;;13.33;12.67;;;;;;;;5026961;28;51364;-56
2023/06/22 05:51:18;;;;;;;;;15.00;14.75;;;;;;;;5026865;28;51492;-57
2023/06/22 05:53:44;;;;;;;;;14.00;14.00;;;;;;;;5025259;28;51182;-57
2023/06/22 05:56:09;;;;;;;;;15.67;15.67;;;;;;;;5023867;28;51016;-57
2023/06/22 05:58:35;;;;;;;;;12.33;11.67;;;;;;;;5020914;28;51032;-57
2023/06/22 06:01:00;;;;;;;;;13.67;12.67;;;;;;;;5020761;28;51013;-56
2023/06/22 06:03:28;;;;;;;;;16.67;16.00;;;;;;;;5031717;28;51149;-57
2023/06/22 06:05:54;;;;;;;;;14.67;14.00;;;;;;;;5031992;28;50983;-57
2023/06/22 06:08:19;;;;;;;;;16.67;15.00;;;;;;;;5026733;28;51025;-57
2023/06/22 06:10:44;;;;;;;;;16.50;16.25;;;;;;;;5029858;28;51022;-57
2023/06/22 06:13:09;;;;;;;;;17.00;16.50;;;;;;;;5015989;28;50881;-58
2023/06/22 06:15:35;;;;;;;;;18.25;17.50;;;;;;;;5028533;28;51054;-57
2023/06/22 06:18:01;;;;;;;;;17.50;16.25;;;;;;;;5032339;28;50957;-58
2023/06/22 06:20:29;;;;;;;;;17.75;16.50;;;;;;;;5031596;28;51387;-57
2023/06/22 06:22:55;;;;;;;;;18.75;18.25;;;;;;;;5030248;28;51205;-56
2023/06/22 06:25:21;;;;;;;;;19.75;18.75;;;;;;;;5027598;28;51724;-56
2023/06/22 06:27:47;;;;;;;;;18.75;17.75;;;;;;;;5020160;28;51110;-57
2023/06/22 06:30:13;;;;;;;;;20.75;20.50;;;;;;;;5028930;28;51535;-57
2023/06/22 06:32:39;;;;;;;;;16.75;16.75;;;;;;;;5023407;28;51732;-58
2023/06/22 06:35:11;;;;;;;;;21.25;19.75;;;;;;;;5025383;28;51089;-57
2023/06/22 06:37:37;;;;;;;;;21.00;20.25;;;;;;;;5029148;28;51092;-58
2023/06/22 06:40:05;;;;;;;;;20.75;19.50;;;;;;;;5015458;28;50998;-59
2023/06/22 06:42:31;;;;;;;;;20.25;19.50;;;;;;;;5031817;28;51686;-59
2023/06/22 06:44:56;;;;;;;;;22.50;21.00;;;;;;;;5018870;28;51944;-61
2023/06/22 06:47:21;;;;;;;;;21.00;20.25;;;;;;;;5028315;28;51114;-60
2023/06/22 06:49:47;;;;;;;;;22.50;22.50;;;;;;;;5031133;28;50907;-60
2023/06/22 06:52:12;;;;;;;;;20.25;20.00;;;;;;;;5021653;28;51694;-60
2023/06/22 06:54:37;;;;;;;;;23.50;22.50;;;;;;;;5026560;28;50957;-60
2023/06/22 06:57:02;;;;;;;;;21.75;20.50;;;;;;;;5014944;28;50911;-61
2023/06/22 06:59:29;;;;;;;;;25.00;22.75;;;;;;;;5018697;28;51337;-61
2023/06/22 07:01:54;;;;;;;;;25.25;24.25;;;;;;;;5014637;28;53026;-61
2023/06/22 07:04:19;;;;;;;;;23.00;22.50;;;;;;;;5015291;28;50904;-59
2023/06/22 07:06:44;;;;;;;;;24.75;23.75;;;;;;;;5024253;28;51077;-61
2023/06/22 07:09:09;;;;;;;;;23.75;22.75;;;;;;;;5026999;28;51155;-61
2023/06/22 07:11:36;;;;;;;;;25.50;22.50;;;;;;;;5028508;28;51139;-61
2023/06/22 07:14:01;;;;;;;;;22.75;22.25;;;;;;;;5027561;28;51174;-61
2023/06/22 07:16:27;;;;;;;;;25.75;25.25;;;;;;;;5024780;28;50941;-60
2023/06/22 07:18:53;;;;;;;;;28.75;28.00;;;;;;;;5028501;28;51153;-61
2023/06/22 07:21:18;;;;;;;;;26.75;24.50;;;;;;;;5033168;28;50968;-60
2023/06/22 07:23:43;;;;;;;;;26.50;26.00;;;;;;;;5013366;28;52728;-60
2023/06/22 07:26:08;;;;;;;;;24.50;23.50;;;;;;;;5032830;28;51173;-60
2023/06/22 07:28:37;;;;;;;;;24.75;24.50;;;;;;;;5034550;28;50901;-60
2023/06/22 07:31:03;;;;;;;;;28.00;27.50;;;;;;;;5034382;28;52108;-60
2023/06/22 07:33:29;;;;;;;;;25.25;23.50;;;;;;;;5034342;28;51033;-60
2023/06/22 07:35:54;;;;;;;;;27.50;26.50;;;;;;;;5034353;28;50966;-60
2023/06/22 07:38:19;;;;;;;;;28.00;26.00;;;;;;;;5034268;28;51719;-61
2023/06/22 07:40:45;;;;;;;;;33.75;29.25;;;;;;;;5034267;28;51743;-61
2023/06/22 07:43:10;;;;;;;;;29.75;27.75;;;;;;;;5034289;28;51051;-59
2023/06/22 07:45:35;;;;;;;;;27.00;25.75;;;;;;;;5034289;28;51085;-61
2023/06/22 07:48:01;;;;;;;;;28.25;27.50;;;;;;;;5034215;28;51339;-60
2023/06/22 07:50:26;;;;;;;;;29.25;26.75;;;;;;;;5033967;28;51561;-60
2023/06/22 07:52:52;;;;;;;;;29.75;28.50;;;;;;;;5033975;28;51048;-60
2023/06/22 07:55:17;;;;;;;;;25.75;25.25;;;;;;;;5022794;28;51209;-59
2023/06/22 07:57:43;;;;;;;;;28.50;27.50;;;;;;;;5034083;28;50885;-60
2023/06/22 08:00:15;;;;;;;;;27.50;26.00;;;;;;;;5033999;28;50918;-60
2023/06/22 08:02:41;;;;;;;;;26.50;25.00;;;;;;;;5034078;28;51035;-61
2023/06/22 08:05:08;;;;;;;;;29.75;27.25;;;;;;;;5023324;28;50963;-61
2023/06/22 08:07:33;;;;;;;;;32.50;29.25;;;;;;;;5014113;28;50890;-59
2023/06/22 08:09:58;;;;;;;;;31.75;28.50;;;;;;;;5032230;28;51718;-60
2023/06/22 08:12:24;;;;;;;;;28.75;28.25;;;;;;;;5014935;28;52079;-60
2023/06/22 08:14:50;;;;;;;;;29.00;27.50;;;;;;;;5013675;28;50934;-61
2023/06/22 08:17:15;;;;;;;;;26.75;25.50;;;;;;;;5013889;28;51132;-60
2023/06/22 08:19:40;;;;;;;;;27.00;25.75;;;;;;;;5013455;28;51763;-60
2023/06/22 08:22:05;;;;;;;;;25.25;25.25;;;;;;;;5017681;28;51182;-61
2023/06/22 08:24:31;;;;;;;;;29.75;29.75;;;;;;;;5023189;28;50835;-60
2023/06/22 08:26:56;;;;;;;;;31.25;27.50;;;;;;;;5014014;28;50871;-61
2023/06/22 08:29:22;;;;;;;;;25.50;23.25;;;;;;;;5013551;28;50881;-61
2023/06/22 08:31:47;;;;;;;;;29.50;28.75;;;;;;;;5026894;28;50965;-59
2023/06/22 08:34:12;;;;;;;;;31.25;30.00;;;;;;;;5013247;28;50981;-58
2023/06/22 08:36:41;;;;;;;;;28.25;27.50;;;;;;;;5012198;28;51415;-60
2023/06/22 08:39:06;;;;;;;;;28.75;26.50;;;;;;;;5013285;28;51851;-60
2023/06/22 08:41:31;;;;;;;;;27.75;27.00;;;;;;;;5013136;28;50947;-59
2023/06/22 08:43:57;;;;;;;;;25.00;24.00;;;;;;;;5013782;28;51029;-59
2023/06/22 08:46:29;;;;;;;;;31.00;30.00;;;;;;;;5013679;28;51084;-60
2023/06/22 08:48:55;;;;;;;;;24.75;24.75;;;;;;;;5013393;28;51012;-58
2023/06/22 08:51:20;;;;;;;;;30.75;29.25;;;;;;;;5013375;28;51121;-59
2023/06/22 08:53:45;;;;;;;;;28.50;27.50;;;;;;;;5020541;28;51056;-60
2023/06/22 08:56:11;;;;;;;;;28.25;26.75;;;;;;;;5016570;28;50863;-60
2023/06/22 08:58:36;;;;;;;;;28.00;27.50;;;;;;;;5013308;28;51074;-60
2023/06/22 09:01:01;;;;;;;;;27.00;25.75;;;;;;;;5013105;28;50983;-59
2023/06/22 09:03:26;;;;;;;;;31.50;28.50;;;;;;;;5016326;28;50980;-61
2023/06/22 09:05:52;;;;;;;;;30.00;28.50;;;;;;;;5013081;28;51288;-61
2023/06/22 09:08:17;;;;;;;;;32.25;29.50;;;;;;;;5017048;28;51741;-59
2023/06/22 09:10:42;;;;;;;;;30.75;28.50;;;;;;;;5030551;28;50906;-59
2023/06/22 09:13:07;;;;;;;;;27.00;26.50;;;;;;;;5012923;28;51038;-60
2023/06/22 09:15:34;;;;;;;;;28.25;27.00;;;;;;;;5013011;28;50985;-59
2023/06/22 09:17:59;;;;;;;;;28.25;27.75;;;;;;;;5012381;28;51835;-61
2023/06/22 09:20:24;;;;;;;;;31.00;27.00;;;;;;;;5012437;28;51109;-61
2023/06/22 09:22:49;;;;;;;;;28.75;26.75;;;;;;;;5011409;28;51074;-60
2023/06/22 09:25:15;;;;;;;;;23.00;23.00;;;;;;;;5014250;28;50994;-59
2023/06/22 09:27:40;;;;;;;;;29.00;28.00;;;;;;;;5023342;28;52216;-60
2023/06/22 09:30:06;;;;;;;;;29.00;27.00;;;;;;;;5014734;28;51021;-61
2023/06/22 09:32:31;;;;;;;;;23.75;23.00;;;;;;;;5023847;28;50929;-61
2023/06/22 09:34:56;;;;;;;;;25.00;24.25;;;;;;;;5012399;28;50899;-59
2023/06/22 09:37:22;;;;;;;;;23.25;21.75;;;;;;;;5012531;28;51777;-60
2023/06/22 09:39:47;;;;;;;;;26.00;24.50;;;;;;;;5012672;28;51285;-60
2023/06/22 09:42:13;;;;;;;;;25.50;25.00;;;;;;;;5012800;28;51093;-60
2023/06/22 09:44:38;;;;;;;;;28.50;26.00;;;;;;;;5012604;28;51113;-61
2023/06/22 09:47:04;;;;;;;;;22.00;22.00;;;;;;;;5012093;28;52107;-60
2023/06/22 09:49:29;;;;;;;;;24.50;24.50;;;;;;;;5011076;28;51080;-60
2023/06/22 09:51:54;;;;;;;;;23.50;23.00;;;;;;;;5012346;28;50935;-60
2023/06/22 09:54:19;;;;;;;;;26.25;25.50;;;;;;;;5023431;28;51148;-60
2023/06/22 09:56:44;;;;;;;;;24.75;24.75;;;;;;;;5011207;28;53626;-60
2023/06/22 09:59:10;;;;;;;;;25.25;24.50;;;;;;;;5012399;28;51111;-60
2023/06/22 10:01:35;;;;;;;;;27.50;25.75;;;;;;;;5013712;28;51151;-60
2023/06/22 10:04:01;;;;;;;;;26.00;25.75;;;;;;;;5012313;28;51030;-60
2023/06/22 10:06:26;;;;;;;;;26.75;24.25;;;;;;;;5011585;28;51974;-60
2023/06/22 10:08:52;;;;;;;;;23.25;22.25;;;;;;;;5021221;28;50901;-60
2023/06/22 10:11:17;;;;;;;;;26.00;24.00;;;;;;;;5024498;28;51073;-60
2023/06/22 10:13:43;;;;;;;;;20.75;20.75;;;;;;;;5012142;28;51266;-60
2023/06/22 10:16:08;;;;;;;;;19.50;18.50;;;;;;;;5009974;28;52781;-60
2023/06/22 10:18:33;;;;;;;;;24.75;24.50;;;;;;;;5011964;28;50962;-60
2023/06/22 10:20:58;;;;;;;;;25.25;24.75;;;;;;;;5011741;28;51137;-60
2023/06/22 10:23:24;;;;;;;;;21.00;20.75;;;;;;;;5011953;28;50996;-59
2023/06/22 10:25:49;;;;;;;;;17.00;16.25;;;;;;;;5011591;28;51037;-60
2023/06/22 10:28:14;;;;;;;;;19.50;18.50;;;;;;;;5009880;28;50999;-60
2023/06/22 10:30:43;;;;;;;;;17.67;16.33;;;;;;;;5017098;28;51077;-59
2023/06/22 10:33:09;;;;;;;;;19.50;17.75;;;;;;;;5017699;28;51347;-60
2023/06/22 10:35:35;;;;;;;;;17.75;16.75;;;;;;;;5010925;28;51919;-62
2023/06/22 10:38:00;;;;;;;;;23.50;23.25;;;;;;;;5020851;28;50961;-59
2023/06/22 10:40:25;;;;;;;;;18.67;18.00;;;;;;;;5011181;28;50921;-59
2023/06/22 10:42:50;;;;;;;;;18.00;17.33;;;;;;;;5010841;28;51037;-59
2023/06/22 10:45:16;;;;;;;;;15.33;15.33;;;;;;;;5010669;28;50984;-61
2023/06/22 10:47:42;;;;;;;;;19.25;19.00;;;;;;;;5010858;28;50953;-60
2023/06/22 10:50:07;;;;;;;;;16.33;16.00;;;;;;;;5011254;28;51065;-61
2023/06/22 10:52:33;;;;;;;;;15.75;15.25;;;;;;;;5010822;28;51070;-59
2023/06/22 10:54:58;;;;;;;;;20.67;18.00;;;;;;;;5020746;28;51820;-59
2023/06/22 10:57:23;;;;;;;;;16.67;16.67;;;;;;;;5012679;28;51021;-60
2023/06/22 10:59:48;;;;;;;;;16.00;15.67;;;;;;;;5019460;28;51069;-59
2023/06/22 11:02:14;;;;;;;;;15.00;15.00;;;;;;;;5034246;28;51324;-60
2023/06/22 11:04:39;;;;;;;;;17.33;17.33;;;;;;;;5034291;28;51734;-59
2023/06/22 11:07:04;;;;;;;;;10.67;10.00;;;;;;;;5034584;28;50957;-60
2023/06/22 11:09:30;;;;;;;;;12.33;12.33;;;;;;;;5034108;28;51032;-59
2023/06/22 11:11:55;;;;;;;;;14.33;14.00;;;;;;;;5021336;28;50925;-61
2023/06/22 11:14:21;;;;;;;;;14.67;14.00;;;;;;;;5014492;28;52876;-59
2023/06/22 11:16:47;;;;;;;;;12.33;12.33;;;;;;;;5014467;28;51038;-60
2023/06/22 11:19:12;;;;;;;;;15.00;15.00;;;;;;;;5014850;28;50848;-60
2023/06/22 11:21:37;;;;;;;;;17.33;16.67;;;;;;;;5014450;28;50832;-60
2023/06/22 11:24:03;;;;;;;;;14.67;13.00;;;;;;;;5013886;28;51600;-60
2023/06/22 11:26:28;;;;;;;;;14.00;12.67;;;;;;;;5019331;28;51275;-61
2023/06/22 11:28:53;;;;;;;;;17.67;17.00;;;;;;;;5014625;28;51173;-60
2023/06/22 11:31:19;;;;;;;;;14.67;14.67;;;;;;;;5026411;28;51140;-60
2023/06/22 11:33:45;;;;;;;;;14.33;14.33;;;;;;;;5014843;28;51839;-60
2023/06/22 11:36:11;;;;;;;;;16.33;16.00;;;;;;;;5013825;28;50915;-60
2023/06/22 11:38:38;;;;;;;;;17.00;14.00;;;;;;;;5013591;28;50960;-59
2023/06/22 11:41:04;;;;;;;;;13.67;13.67;;;;;;;;5013917;28;51054;-59
2023/06/22 11:43:29;;;;;;;;;16.33;13.33;;;;;;;;5013132;28;51733;-59
2023/06/22 11:45:55;;;;;;;;;12.00;12.00;;;;;;;;5014109;28;50942;-59
2023/06/22 11:48:21;;;;;;;;;13.00;13.00;;;;;;;;5014032;28;51251;-59
2023/06/22 11:50:46;;;;;;;;;14.00;14.00;;;;;;;;5014340;28;50761;-60
2023/06/22 11:53:12;;;;;;;;;13.25;13.00;;;;;;;;5015325;28;51066;-59
2023/06/22 11:55:37;;;;;;;;;16.50;16.50;;;;;;;;5021503;28;50919;-60
2023/06/22 11:58:03;;;;;;;;;20.25;18.50;;;;;;;;5016453;28;50860;-60
2023/06/22 12:00:29;;;;;;;;;21.00;21.00;;;;;;;;5021802;28;51024;-61
2023/06/22 12:02:55;;;;;;;;;20.50;19.75;;;;;;;;5013282;28;51048;-60
2023/06/22 12:05:22;;;;;;;;;45.00;38.00;;;;;;;;5013711;28;51017;-60
2023/06/22 12:07:47;;;;;;;;;21.75;20.00;;;;;;;;5013328;28;51004;-60
2023/06/22 12:10:12;;;;;;;;;17.50;17.25;;;;;;;;5032359;28;51029;-60
2023/06/22 12:12:37;;;;;;;;;25.00;25.00;;;;;;;;5013820;28;51236;-60
2023/06/22 12:15:03;;;;;;;;;19.00;19.00;;;;;;;;5013433;28;50986;-61
2023/06/22 12:17:29;;;;;;;;;22.50;22.00;;;;;;;;5011912;28;51232;-60
2023/06/22 12:19:54;;;;;;;;;23.00;21.50;;;;;;;;5013526;28;51068;-60
2023/06/22 12:22:20;;;;;;;;;25.25;25.25;;;;;;;;5012614;28;51040;-59
2023/06/22 12:24:45;;;;;;;;;17.33;17.33;;;;;;;;5013280;28;51007;-60
2023/06/22 12:27:10;;;;;;;;;19.50;19.50;;;;;;;;5012962;28;50902;-60
2023/06/22 12:29:35;;;;;;;;;22.50;21.50;;;;;;;;5013697;28;50848;-59
2023/06/22 12:32:00;;;;;;;;;23.50;21.75;;;;;;;;5024688;28;51829;-60
2023/06/22 12:34:26;;;;;;;;;22.00;21.25;;;;;;;;5013592;28;50914;-60
2023/06/22 12:36:53;;;;;;;;;20.25;19.75;;;;;;;;5013147;28;51081;-59
2023/06/22 12:39:20;;;;;;;;;22.25;20.75;;;;;;;;5013272;28;51284;-60
2023/06/22 12:41:45;;;;;;;;;21.75;20.00;;;;;;;;5012684;28;52331;-59
2023/06/22 12:44:10;;;;;;;;;22.75;21.50;;;;;;;;5013264;28;51095;-60
2023/06/22 12:46:37;;;;;;;;;19.75;18.25;;;;;;;;5012647;28;51009;-60
2023/06/22 12:49:04;;;;;;;;;21.00;20.00;;;;;;;;5013123;28;51010;-60
2023/06/22 12:51:29;;;;;;;;;19.75;19.50;;;;;;;;5011936;28;52257;-60
2023/06/22 12:53:54;;;;;;;;;20.50;20.00;;;;;;;;5021225;28;50921;-60
2023/06/22 12:56:20;;;;;;;;;23.67;20.00;;;;;;;;5015366;28;51337;-61
2023/06/22 12:58:45;;;;;;;;;16.33;16.33;;;;;;;;5022020;28;51108;-61
2023/06/22 13:01:10;;;;;;;;;20.25;20.00;;;;;;;;5012475;28;52956;-59
2023/06/22 13:03:35;;;;;;;;;18.00;18.00;;;;;;;;5012630;28;50820;-61
2023/06/22 13:06:00;;;;;;;;;22.00;20.00;;;;;;;;5017158;28;50923;-60
2023/06/22 13:08:26;;;;;;;;;15.33;15.00;;;;;;;;5018695;28;51022;-59
2023/06/22 13:10:51;;;;;;;;;17.67;17.00;;;;;;;;5026576;28;51892;-60
2023/06/22 13:13:16;;;;;;;;;19.50;18.50;;;;;;;;5012897;28;50886;-63
2023/06/22 13:15:41;;;;;;;;;19.25;18.75;;;;;;;;5012527;28;50817;-62
2023/06/22 13:18:07;;;;;;;;;22.25;19.75;;;;;;;;5011526;28;51267;-59
2023/06/22 13:20:32;;;;;;;;;21.75;21.75;;;;;;;;5011616;28;51797;-61
2023/06/22 13:22:58;;;;;;;;;21.00;21.00;;;;;;;;5012409;28;51093;-59
2023/06/22 13:25:26;;;;;;;;;21.25;21.00;;;;;;;;5013158;28;51058;-61
2023/06/22 13:27:51;;;;;;;;;25.75;24.75;;;;;;;;5018789;28;50882;-60
2023/06/22 13:30:17;;;;;;;;;21.50;21.25;;;;;;;;5031483;28;51335;-59
2023/06/22 13:32:42;;;;;;;;;22.25;21.25;;;;;;;;5031864;28;51044;-59
2023/06/22 13:35:09;;;;;;;;;25.50;24.00;;;;;;;;5031962;28;51170;-60
2023/06/22 13:37:34;;;;;;;;;22.50;22.50;;;;;;;;5031843;28;51101;-60
2023/06/22 13:39:59;;;;;;;;;24.50;22.50;;;;;;;;5031463;28;50997;-60
2023/06/22 13:42:25;;;;;;;;;26.50;25.75;;;;;;;;5032145;28;51045;-60
2023/06/22 13:44:50;;;;;;;;;28.50;27.25;;;;;;;;5031893;28;51189;-60
2023/06/22 13:47:15;;;;;;;;;25.75;25.75;;;;;;;;5032093;28;50894;-59
2023/06/22 13:49:40;;;;;;;;;26.00;25.25;;;;;;;;5031596;28;51932;-60
2023/06/22 13:52:10;;;;;;;;;26.00;25.50;;;;;;;;5031578;28;51036;-59
2023/06/22 13:54:35;;;;;;;;;27.25;26.75;;;;;;;;5031350;28;50972;-60
2023/06/22 13:57:00;;;;;;;;;24.75;24.75;;;;;;;;5022090;28;51087;-60
2023/06/22 13:59:27;;;;;;;;;24.75;22.50;;;;;;;;5011674;28;51988;-59
2023/06/22 14:01:53;;;;;;;;;21.50;21.25;;;;;;;;5011815;28;51108;-60
2023/06/22 14:04:18;;;;;;;;;21.50;20.50;;;;;;;;5011706;28;51010;-60
2023/06/22 14:06:43;;;;;;;;;22.50;22.50;;;;;;;;5012008;28;51138;-60
2023/06/22 14:09:09;;;;;;;;;20.25;20.00;;;;;;;;5023363;28;52071;-59
2023/06/22 14:11:34;;;;;;;;;22.67;21.33;;;;;;;;5023084;28;51611;-61
2023/06/22 14:13:59;;;;;;;;;18.67;18.67;;;;;;;;5017602;28;51077;-59
2023/06/22 14:16:25;;;;;;;;;18.00;17.33;;;;;;;;5023994;28;51049;-60
2023/06/22 14:18:50;;;;;;;;;21.75;21.00;;;;;;;;5025884;28;53106;-60